sensor_id;sensor_type;location;lat;lon;timestamp;temperature;humidity
76537;DHT22;65381;51.254;15.592;2023-09-12T00:00:11;19.40;55.00
76537;DHT22;65381;51.254;15.592;2023-09-12T00:02:59;19.40;55.00
76537;DHT22;65381;51.254;15.592;2023-09-12T00:05:27;19.50;55.00
76537;DHT22;65381;51.254;15.592;2023-09-12T00:07:55;19.50;55.00
76537;DHT22;65381;51.254;15.592;2023-09-12T00:10:24;19.50;55.00
76537;DHT22;65381;51.254;15.592;2023-09-12T00:12:53;19.50;55.00
76537;DHT22;65381;51.254;15.592;2023-09-12T00:15:22;19.50;55.00
76537;DHT22;65381;51.254;15.592;2023-09-12T00:17:50;19.40;55.00
76537;DHT22;65381;51.254;15.592;2023-09-12T00:20:18;19.40;55.10
76537;DHT22;65381;51.254;15.592;2023-09-12T00:22:46;19.40;55.20
76537;DHT22;65381;51.254;15.592;2023-09-12T00:25:14;19.30;55.20
76537;DHT22;65381;51.254;15.592;2023-09-12T00:27:42;19.30;55.30
76537;DHT22;65381;51.254;15.592;2023-09-12T00:30:10;19.20;55.30
76537;DHT22;65381;51.254;15.592;2023-09-12T00:32:39;19.20;55.40
76537;DHT22;65381;51.254;15.592;2023-09-12T00:35:08;19.20;55.50
76537;DHT22;65381;51.254;15.592;2023-09-12T00:37:36;19.20;55.50
76537;DHT22;65381;51.254;15.592;2023-09-12T00:40:05;19.10;55.50
76537;DHT22;65381;51.254;15.592;2023-09-12T00:42:33;19.10;55.60
76537;DHT22;65381;51.254;15.592;2023-09-12T00:45:01;19.10;55.70
76537;DHT22;65381;51.254;15.592;2023-09-12T00:47:30;19.10;55.70
76537;DHT22;65381;51.254;15.592;2023-09-12T00:49:59;19.00;55.80
76537;DHT22;65381;51.254;15.592;2023-09-12T00:52:28;19.00;55.80
76537;DHT22;65381;51.254;15.592;2023-09-12T00:54:57;19.00;55.80
76537;DHT22;65381;51.254;15.592;2023-09-12T00:57:26;18.90;55.90
76537;DHT22;65381;51.254;15.592;2023-09-12T00:59:54;18.90;55.90
76537;DHT22;65381;51.254;15.592;2023-09-12T01:02:23;18.80;56.00
76537;DHT22;65381;51.254;15.592;2023-09-12T01:04:52;18.80;56.10
76537;DHT22;65381;51.254;15.592;2023-09-12T01:07:21;18.80;56.10
76537;DHT22;65381;51.254;15.592;2023-09-12T01:09:51;18.80;56.20
76537;DHT22;65381;51.254;15.592;2023-09-12T01:12:18;18.80;56.20
76537;DHT22;65381;51.254;15.592;2023-09-12T01:14:47;18.70;56.30
76537;DHT22;65381;51.254;15.592;2023-09-12T01:17:15;18.70;56.30
76537;DHT22;65381;51.254;15.592;2023-09-12T01:19:43;18.70;56.40
76537;DHT22;65381;51.254;15.592;2023-09-12T01:27:41;18.60;56.50
76537;DHT22;65381;51.254;15.592;2023-09-12T01:30:13;18.60;56.50
76537;DHT22;65381;51.254;15.592;2023-09-12T01:32:42;18.60;56.60
76537;DHT22;65381;51.254;15.592;2023-09-12T01:35:11;18.60;56.60
76537;DHT22;65381;51.254;15.592;2023-09-12T01:37:40;18.60;56.70
76537;DHT22;65381;51.254;15.592;2023-09-12T01:40:08;18.60;56.70
76537;DHT22;65381;51.254;15.592;2023-09-12T01:42:40;18.60;56.70
76537;DHT22;65381;51.254;15.592;2023-09-12T01:45:17;18.60;56.80
76537;DHT22;65381;51.254;15.592;2023-09-12T01:47:50;18.60;56.80
76537;DHT22;65381;51.254;15.592;2023-09-12T01:50:20;18.60;56.80
76537;DHT22;65381;51.254;15.592;2023-09-12T01:52:48;18.60;56.90
76537;DHT22;65381;51.254;15.592;2023-09-12T01:55:18;18.50;56.90
76537;DHT22;65381;51.254;15.592;2023-09-12T01:57:46;18.50;57.00
76537;DHT22;65381;51.254;15.592;2023-09-12T02:00:18;18.50;57.00
76537;DHT22;65381;51.254;15.592;2023-09-12T02:02:49;18.50;57.10
76537;DHT22;65381;51.254;15.592;2023-09-12T02:05:20;18.50;57.10
76537;DHT22;65381;51.254;15.592;2023-09-12T02:07:50;18.50;57.20
76537;DHT22;65381;51.254;15.592;2023-09-12T02:10:19;18.50;57.20
76537;DHT22;65381;51.254;15.592;2023-09-12T02:12:49;18.50;57.30
76537;DHT22;65381;51.254;15.592;2023-09-12T02:15:17;18.50;57.30
76537;DHT22;65381;51.254;15.592;2023-09-12T02:17:45;18.50;57.40
76537;DHT22;65381;51.254;15.592;2023-09-12T02:20:14;18.50;57.40
76537;DHT22;65381;51.254;15.592;2023-09-12T02:22:42;18.60;57.40
76537;DHT22;65381;51.254;15.592;2023-09-12T02:25:11;18.60;57.40
76537;DHT22;65381;51.254;15.592;2023-09-12T02:27:39;18.50;57.40
76537;DHT22;65381;51.254;15.592;2023-09-12T02:30:08;18.50;57.40
76537;DHT22;65381;51.254;15.592;2023-09-12T02:32:36;18.50;57.50
76537;DHT22;65381;51.254;15.592;2023-09-12T02:35:05;18.50;57.60
76537;DHT22;65381;51.254;15.592;2023-09-12T02:37:33;18.50;57.60
76537;DHT22;65381;51.254;15.592;2023-09-12T02:40:02;18.50;57.70
76537;DHT22;65381;51.254;15.592;2023-09-12T02:42:33;18.60;57.70
76537;DHT22;65381;51.254;15.592;2023-09-12T02:45:01;18.60;57.70
76537;DHT22;65381;51.254;15.592;2023-09-12T02:47:29;18.60;57.80
76537;DHT22;65381;51.254;15.592;2023-09-12T02:49:57;18.60;57.80
76537;DHT22;65381;51.254;15.592;2023-09-12T02:52:25;18.60;57.80
76537;DHT22;65381;51.254;15.592;2023-09-12T02:54:53;18.70;57.80
76537;DHT22;65381;51.254;15.592;2023-09-12T02:57:21;18.70;57.80
76537;DHT22;65381;51.254;15.592;2023-09-12T02:59:49;18.80;57.80
76537;DHT22;65381;51.254;15.592;2023-09-12T03:02:17;18.80;57.80
76537;DHT22;65381;51.254;15.592;2023-09-12T03:04:46;18.90;57.80
76537;DHT22;65381;51.254;15.592;2023-09-12T03:07:13;19.00;57.80
76537;DHT22;65381;51.254;15.592;2023-09-12T03:09:42;19.00;57.80
76537;DHT22;65381;51.254;15.592;2023-09-12T03:12:11;19.10;57.70
76537;DHT22;65381;51.254;15.592;2023-09-12T03:14:39;19.00;57.80
76537;DHT22;65381;51.254;15.592;2023-09-12T03:17:07;19.10;57.80
76537;DHT22;65381;51.254;15.592;2023-09-12T03:19:35;19.10;57.80
76537;DHT22;65381;51.254;15.592;2023-09-12T03:22:04;19.10;57.80
76537;DHT22;65381;51.254;15.592;2023-09-12T03:24:32;19.10;57.90
76537;DHT22;65381;51.254;15.592;2023-09-12T03:27:01;19.10;57.90
76537;DHT22;65381;51.254;15.592;2023-09-12T03:29:29;19.10;57.90
76537;DHT22;65381;51.254;15.592;2023-09-12T03:31:57;19.10;57.90
76537;DHT22;65381;51.254;15.592;2023-09-12T03:34:25;19.10;57.90
76537;DHT22;65381;51.254;15.592;2023-09-12T03:36:54;19.00;58.00
76537;DHT22;65381;51.254;15.592;2023-09-12T03:39:22;19.00;58.00
76537;DHT22;65381;51.254;15.592;2023-09-12T03:41:50;19.00;58.00
76537;DHT22;65381;51.254;15.592;2023-09-12T03:44:19;19.00;58.10
76537;DHT22;65381;51.254;15.592;2023-09-12T03:46:46;19.00;58.10
76537;DHT22;65381;51.254;15.592;2023-09-12T03:49:15;19.00;58.10
76537;DHT22;65381;51.254;15.592;2023-09-12T03:51:43;19.00;58.20
76537;DHT22;65381;51.254;15.592;2023-09-12T03:54:11;19.00;58.10
76537;DHT22;65381;51.254;15.592;2023-09-12T03:56:39;19.00;58.20
76537;DHT22;65381;51.254;15.592;2023-09-12T03:59:08;19.00;58.20
76537;DHT22;65381;51.254;15.592;2023-09-12T04:01:36;19.00;58.30
76537;DHT22;65381;51.254;15.592;2023-09-12T04:04:04;19.00;58.30
76537;DHT22;65381;51.254;15.592;2023-09-12T04:06:32;19.00;58.20
76537;DHT22;65381;51.254;15.592;2023-09-12T04:09:01;19.10;58.30
76537;DHT22;65381;51.254;15.592;2023-09-12T04:11:29;19.10;58.30
76537;DHT22;65381;51.254;15.592;2023-09-12T04:14:13;19.10;58.20
76537;DHT22;65381;51.254;15.592;2023-09-12T04:16:42;19.10;58.20
76537;DHT22;65381;51.254;15.592;2023-09-12T04:19:10;19.10;58.20
76537;DHT22;65381;51.254;15.592;2023-09-12T04:21:38;19.20;58.20
76537;DHT22;65381;51.254;15.592;2023-09-12T04:24:07;19.20;58.20
76537;DHT22;65381;51.254;15.592;2023-09-12T04:26:35;19.20;58.20
76537;DHT22;65381;51.254;15.592;2023-09-12T04:29:04;19.20;58.20
76537;DHT22;65381;51.254;15.592;2023-09-12T04:31:32;19.20;58.30
76537;DHT22;65381;51.254;15.592;2023-09-12T04:34:00;19.20;58.20
76537;DHT22;65381;51.254;15.592;2023-09-12T04:36:28;19.20;58.30
76537;DHT22;65381;51.254;15.592;2023-09-12T04:38:56;19.30;58.30
76537;DHT22;65381;51.254;15.592;2023-09-12T04:41:24;19.30;58.30
76537;DHT22;65381;51.254;15.592;2023-09-12T04:43:52;19.30;58.40
76537;DHT22;65381;51.254;15.592;2023-09-12T04:46:20;19.30;58.40
76537;DHT22;65381;51.254;15.592;2023-09-12T04:48:48;19.40;58.30
76537;DHT22;65381;51.254;15.592;2023-09-12T04:51:16;19.40;58.30
76537;DHT22;65381;51.254;15.592;2023-09-12T04:53:46;19.50;58.30
76537;DHT22;65381;51.254;15.592;2023-09-12T04:56:20;19.50;58.30
76537;DHT22;65381;51.254;15.592;2023-09-12T04:58:48;19.50;58.30
76537;DHT22;65381;51.254;15.592;2023-09-12T05:01:16;19.60;58.40
76537;DHT22;65381;51.254;15.592;2023-09-12T05:03:44;19.70;58.40
76537;DHT22;65381;51.254;15.592;2023-09-12T05:06:13;19.70;58.30
76537;DHT22;65381;51.254;15.592;2023-09-12T05:08:42;19.90;58.40
76537;DHT22;65381;51.254;15.592;2023-09-12T05:11:10;19.90;58.40
76537;DHT22;65381;51.254;15.592;2023-09-12T05:13:39;20.00;58.30
76537;DHT22;65381;51.254;15.592;2023-09-12T05:16:07;20.10;58.30
76537;DHT22;65381;51.254;15.592;2023-09-12T05:18:35;20.20;58.30
76537;DHT22;65381;51.254;15.592;2023-09-12T05:21:03;20.30;58.30
76537;DHT22;65381;51.254;15.592;2023-09-12T05:23:32;20.60;58.40
76537;DHT22;65381;51.254;15.592;2023-09-12T05:26:00;21.00;58.50
76537;DHT22;65381;51.254;15.592;2023-09-12T05:28:28;21.70;58.40
76537;DHT22;65381;51.254;15.592;2023-09-12T05:30:56;22.50;58.00
76537;DHT22;65381;51.254;15.592;2023-09-12T05:33:24;23.10;57.80
76537;DHT22;65381;51.254;15.592;2023-09-12T05:35:52;23.80;57.60
76537;DHT22;65381;51.254;15.592;2023-09-12T05:38:21;24.50;57.20
76537;DHT22;65381;51.254;15.592;2023-09-12T05:40:49;25.20;56.80
76537;DHT22;65381;51.254;15.592;2023-09-12T05:43:18;25.60;56.60
76537;DHT22;65381;51.254;15.592;2023-09-12T05:45:46;26.00;56.50
76537;DHT22;65381;51.254;15.592;2023-09-12T05:48:14;26.50;56.30
76537;DHT22;65381;51.254;15.592;2023-09-12T05:50:42;27.20;55.80
76537;DHT22;65381;51.254;15.592;2023-09-12T05:53:10;27.60;55.40
76537;DHT22;65381;51.254;15.592;2023-09-12T05:55:38;28.00;55.00
76537;DHT22;65381;51.254;15.592;2023-09-12T05:58:06;28.00;54.90
76537;DHT22;65381;51.254;15.592;2023-09-12T06:00:35;27.70;55.30
76537;DHT22;65381;51.254;15.592;2023-09-12T06:03:03;27.60;55.70
76537;DHT22;65381;51.254;15.592;2023-09-12T06:05:32;28.00;55.80
76537;DHT22;65381;51.254;15.592;2023-09-12T06:08:00;28.60;55.30
76537;DHT22;65381;51.254;15.592;2023-09-12T06:10:28;29.40;54.70
76537;DHT22;65381;51.254;15.592;2023-09-12T06:12:56;30.30;53.80
76537;DHT22;65381;51.254;15.592;2023-09-12T06:15:24;31.00;53.00
76537;DHT22;65381;51.254;15.592;2023-09-12T06:17:52;31.40;52.60
76537;DHT22;65381;51.254;15.592;2023-09-12T06:20:21;31.80;52.10
76537;DHT22;65381;51.254;15.592;2023-09-12T06:22:50;32.10;51.60
76537;DHT22;65381;51.254;15.592;2023-09-12T06:25:18;32.40;51.20
76537;DHT22;65381;51.254;15.592;2023-09-12T06:27:47;32.80;50.70
76537;DHT22;65381;51.254;15.592;2023-09-12T06:30:15;33.20;50.30
76537;DHT22;65381;51.254;15.592;2023-09-12T06:32:43;33.60;49.70
76537;DHT22;65381;51.254;15.592;2023-09-12T06:35:11;34.20;49.20
76537;DHT22;65381;51.254;15.592;2023-09-12T06:37:39;34.70;48.60
76537;DHT22;65381;51.254;15.592;2023-09-12T06:40:07;35.20;47.90
76537;DHT22;65381;51.254;15.592;2023-09-12T06:42:36;35.30;47.40
76537;DHT22;65381;51.254;15.592;2023-09-12T06:45:04;35.00;47.50
76537;DHT22;65381;51.254;15.592;2023-09-12T06:47:33;35.00;47.40
76537;DHT22;65381;51.254;15.592;2023-09-12T06:50:02;35.30;47.00
76537;DHT22;65381;51.254;15.592;2023-09-12T06:52:32;35.80;46.50
76537;DHT22;65381;51.254;15.592;2023-09-12T06:55:00;36.30;45.90
76537;DHT22;65381;51.254;15.592;2023-09-12T06:57:28;36.80;45.50
76537;DHT22;65381;51.254;15.592;2023-09-12T06:59:56;37.20;44.80
76537;DHT22;65381;51.254;15.592;2023-09-12T07:02:26;37.50;44.20
76537;DHT22;65381;51.254;15.592;2023-09-12T07:04:55;37.40;44.00
76537;DHT22;65381;51.254;15.592;2023-09-12T07:07:23;37.20;43.90
76537;DHT22;65381;51.254;15.592;2023-09-12T07:09:51;36.90;43.70
76537;DHT22;65381;51.254;15.592;2023-09-12T07:12:28;36.40;43.70
76537;DHT22;65381;51.254;15.592;2023-09-12T07:14:56;35.50;44.10
76537;DHT22;65381;51.254;15.592;2023-09-12T07:17:27;34.50;44.80
76537;DHT22;65381;51.254;15.592;2023-09-12T07:19:55;33.80;45.40
76537;DHT22;65381;51.254;15.592;2023-09-12T07:22:25;33.60;45.70
76537;DHT22;65381;51.254;15.592;2023-09-12T07:24:54;33.60;45.70
76537;DHT22;65381;51.254;15.592;2023-09-12T07:27:22;33.90;45.50
76537;DHT22;65381;51.254;15.592;2023-09-12T07:29:50;34.00;45.30
76537;DHT22;65381;51.254;15.592;2023-09-12T07:32:20;34.00;45.50
76537;DHT22;65381;51.254;15.592;2023-09-12T07:34:48;34.20;45.30
76537;DHT22;65381;51.254;15.592;2023-09-12T07:37:16;34.30;45.20
76537;DHT22;65381;51.254;15.592;2023-09-12T07:39:44;34.70;45.00
76537;DHT22;65381;51.254;15.592;2023-09-12T07:42:13;35.20;44.40
76537;DHT22;65381;51.254;15.592;2023-09-12T07:44:40;35.40;44.00
76537;DHT22;65381;51.254;15.592;2023-09-12T07:47:08;35.70;43.90
76537;DHT22;65381;51.254;15.592;2023-09-12T07:49:36;36.20;43.20
76537;DHT22;65381;51.254;15.592;2023-09-12T07:52:05;36.00;43.20
76537;DHT22;65381;51.254;15.592;2023-09-12T07:54:33;35.90;43.30
76537;DHT22;65381;51.254;15.592;2023-09-12T07:57:01;36.00;42.80
76537;DHT22;65381;51.254;15.592;2023-09-12T07:59:29;35.80;42.80
76537;DHT22;65381;51.254;15.592;2023-09-12T08:01:57;35.80;42.70
76537;DHT22;65381;51.254;15.592;2023-09-12T08:04:25;36.00;42.50
76537;DHT22;65381;51.254;15.592;2023-09-12T08:06:53;36.30;42.30
76537;DHT22;65381;51.254;15.592;2023-09-12T08:09:53;36.90;41.60
76537;DHT22;65381;51.254;15.592;2023-09-12T08:12:23;36.90;41.50
76537;DHT22;65381;51.254;15.592;2023-09-12T08:14:54;36.70;41.50
76537;DHT22;65381;51.254;15.592;2023-09-12T08:17:23;36.60;41.50
76537;DHT22;65381;51.254;15.592;2023-09-12T08:19:51;36.50;41.50
76537;DHT22;65381;51.254;15.592;2023-09-12T08:22:19;36.60;41.60
76537;DHT22;65381;51.254;15.592;2023-09-12T08:24:48;36.90;41.00
76537;DHT22;65381;51.254;15.592;2023-09-12T08:27:16;36.70;40.90
76537;DHT22;65381;51.254;15.592;2023-09-12T08:29:44;36.70;41.00
76537;DHT22;65381;51.254;15.592;2023-09-12T08:32:15;37.30;40.60
76537;DHT22;65381;51.254;15.592;2023-09-12T08:34:43;38.10;40.00
76537;DHT22;65381;51.254;15.592;2023-09-12T08:37:11;38.90;39.20
76537;DHT22;65381;51.254;15.592;2023-09-12T08:39:43;39.20;38.90
76537;DHT22;65381;51.254;15.592;2023-09-12T08:42:14;39.40;38.80
76537;DHT22;65381;51.254;15.592;2023-09-12T08:44:43;40.30;38.10
76537;DHT22;65381;51.254;15.592;2023-09-12T08:47:12;40.80;37.60
76537;DHT22;65381;51.254;15.592;2023-09-12T08:49:41;41.00;37.30
76537;DHT22;65381;51.254;15.592;2023-09-12T08:52:12;41.40;37.00
76537;DHT22;65381;51.254;15.592;2023-09-12T08:54:40;41.60;36.70
76537;DHT22;65381;51.254;15.592;2023-09-12T08:57:10;41.80;36.30
76537;DHT22;65381;51.254;15.592;2023-09-12T08:59:41;42.00;36.10
76537;DHT22;65381;51.254;15.592;2023-09-12T09:02:11;42.20;35.70
76537;DHT22;65381;51.254;15.592;2023-09-12T09:04:40;42.50;35.30
76537;DHT22;65381;51.254;15.592;2023-09-12T09:07:09;42.00;35.70
76537;DHT22;65381;51.254;15.592;2023-09-12T09:09:38;42.20;35.80
76537;DHT22;65381;51.254;15.592;2023-09-12T09:12:08;42.80;35.20
76537;DHT22;65381;51.254;15.592;2023-09-12T09:14:36;43.00;34.70
76537;DHT22;65381;51.254;15.592;2023-09-12T09:17:04;43.10;34.60
76537;DHT22;65381;51.254;15.592;2023-09-12T09:19:42;43.40;34.40
76537;DHT22;65381;51.254;15.592;2023-09-12T09:22:10;44.40;33.50
76537;DHT22;65381;51.254;15.592;2023-09-12T09:24:38;44.30;33.30
76537;DHT22;65381;51.254;15.592;2023-09-12T09:27:07;43.90;33.60
76537;DHT22;65381;51.254;15.592;2023-09-12T09:29:47;44.20;33.30
76537;DHT22;65381;51.254;15.592;2023-09-12T09:32:19;44.70;33.00
76537;DHT22;65381;51.254;15.592;2023-09-12T09:34:50;45.80;32.20
76537;DHT22;65381;51.254;15.592;2023-09-12T09:37:20;46.40;31.60
76537;DHT22;65381;51.254;15.592;2023-09-12T09:39:48;46.60;31.30
76537;DHT22;65381;51.254;15.592;2023-09-12T09:42:20;46.90;31.00
76537;DHT22;65381;51.254;15.592;2023-09-12T09:44:48;46.90;30.90
76537;DHT22;65381;51.254;15.592;2023-09-12T09:47:18;47.00;30.60
76537;DHT22;65381;51.254;15.592;2023-09-12T09:49:46;46.40;30.90
76537;DHT22;65381;51.254;15.592;2023-09-12T09:52:15;46.40;31.00
76537;DHT22;65381;51.254;15.592;2023-09-12T09:54:43;46.80;30.50
76537;DHT22;65381;51.254;15.592;2023-09-12T09:57:13;47.50;30.00
76537;DHT22;65381;51.254;15.592;2023-09-12T09:59:41;47.00;30.00
76537;DHT22;65381;51.254;15.592;2023-09-12T10:02:16;46.70;30.30
76537;DHT22;65381;51.254;15.592;2023-09-12T10:04:48;47.30;29.80
76537;DHT22;65381;51.254;15.592;2023-09-12T10:07:28;47.80;29.30
76537;DHT22;65381;51.254;15.592;2023-09-12T10:10:02;47.20;29.50
76537;DHT22;65381;51.254;15.592;2023-09-12T10:12:35;45.90;30.20
76537;DHT22;65381;51.254;15.592;2023-09-12T10:15:04;45.60;30.50
76537;DHT22;65381;51.254;15.592;2023-09-12T10:17:37;45.80;30.20
76537;DHT22;65381;51.254;15.592;2023-09-12T10:20:13;46.00;29.90
76537;DHT22;65381;51.254;15.592;2023-09-12T10:22:49;46.70;29.40
76537;DHT22;65381;51.254;15.592;2023-09-12T10:25:19;47.60;28.80
76537;DHT22;65381;51.254;15.592;2023-09-12T10:27:49;48.10;28.60
76537;DHT22;65381;51.254;15.592;2023-09-12T10:30:19;48.40;28.30
76537;DHT22;65381;51.254;15.592;2023-09-12T10:32:49;47.70;28.40
76537;DHT22;65381;51.254;15.592;2023-09-12T10:35:19;46.70;29.20
76537;DHT22;65381;51.254;15.592;2023-09-12T10:37:49;47.00;29.00
76537;DHT22;65381;51.254;15.592;2023-09-12T10:40:18;46.90;28.80
76537;DHT22;65381;51.254;15.592;2023-09-12T10:42:53;46.30;29.00
76537;DHT22;65381;51.254;15.592;2023-09-12T10:45:23;45.80;29.20
76537;DHT22;65381;51.254;15.592;2023-09-12T10:47:53;45.50;29.30
76537;DHT22;65381;51.254;15.592;2023-09-12T10:50:21;45.10;29.50
76537;DHT22;65381;51.254;15.592;2023-09-12T10:52:50;45.00;29.40
76537;DHT22;65381;51.254;15.592;2023-09-12T10:55:18;44.90;29.50
76537;DHT22;65381;51.254;15.592;2023-09-12T10:58:07;45.20;29.30
76537;DHT22;65381;51.254;15.592;2023-09-12T11:00:36;46.10;28.80
76537;DHT22;65381;51.254;15.592;2023-09-12T11:05:58;48.00;27.50
76537;DHT22;65381;51.254;15.592;2023-09-12T11:08:26;48.00;27.60
76537;DHT22;65381;51.254;15.592;2023-09-12T11:11:18;48.40;27.20
76537;DHT22;65381;51.254;15.592;2023-09-12T11:14:03;47.80;27.40
76537;DHT22;65381;51.254;15.592;2023-09-12T11:16:32;46.90;27.80
76537;DHT22;65381;51.254;15.592;2023-09-12T11:19:20;46.40;28.20
76537;DHT22;65381;51.254;15.592;2023-09-12T11:21:53;46.60;28.20
76537;DHT22;65381;51.254;15.592;2023-09-12T11:24:24;46.60;28.00
76537;DHT22;65381;51.254;15.592;2023-09-12T11:26:54;46.60;27.90
76537;DHT22;65381;51.254;15.592;2023-09-12T11:29:30;46.40;27.70
76537;DHT22;65381;51.254;15.592;2023-09-12T11:32:03;45.50;27.90
76537;DHT22;65381;51.254;15.592;2023-09-12T11:34:51;44.60;28.50
76537;DHT22;65381;51.254;15.592;2023-09-12T11:37:24;44.40;28.50
76537;DHT22;65381;51.254;15.592;2023-09-12T11:39:53;44.70;28.30
76537;DHT22;65381;51.254;15.592;2023-09-12T11:42:21;44.70;28.10
76537;DHT22;65381;51.254;15.592;2023-09-12T11:44:53;43.70;28.60
76537;DHT22;65381;51.254;15.592;2023-09-12T11:47:21;42.80;29.00
76537;DHT22;65381;51.254;15.592;2023-09-12T11:49:50;42.20;29.50
76537;DHT22;65381;51.254;15.592;2023-09-12T11:52:18;42.50;29.40
76537;DHT22;65381;51.254;15.592;2023-09-12T11:54:48;43.10;29.10
76537;DHT22;65381;51.254;15.592;2023-09-12T11:57:16;43.10;28.90
76537;DHT22;65381;51.254;15.592;2023-09-12T11:59:46;42.70;29.20
76537;DHT22;65381;51.254;15.592;2023-09-12T12:02:16;42.80;29.00
76537;DHT22;65381;51.254;15.592;2023-09-12T12:04:44;42.70;29.10
76537;DHT22;65381;51.254;15.592;2023-09-12T12:07:13;43.20;28.90
76537;DHT22;65381;51.254;15.592;2023-09-12T12:09:41;43.40;28.80
76537;DHT22;65381;51.254;15.592;2023-09-12T12:12:11;43.80;28.60
76537;DHT22;65381;51.254;15.592;2023-09-12T12:14:40;44.30;28.20
76537;DHT22;65381;51.254;15.592;2023-09-12T12:17:09;44.40;28.20
76537;DHT22;65381;51.254;15.592;2023-09-12T12:19:38;45.00;27.90
76537;DHT22;65381;51.254;15.592;2023-09-12T12:22:07;45.10;27.80
76537;DHT22;65381;51.254;15.592;2023-09-12T12:24:40;45.50;27.60
76537;DHT22;65381;51.254;15.592;2023-09-12T12:27:09;45.80;27.30
76537;DHT22;65381;51.254;15.592;2023-09-12T12:29:38;45.90;27.10
76537;DHT22;65381;51.254;15.592;2023-09-12T12:32:10;45.80;27.30
76537;DHT22;65381;51.254;15.592;2023-09-12T12:34:39;45.80;27.30
76537;DHT22;65381;51.254;15.592;2023-09-12T12:37:30;45.30;27.20
76537;DHT22;65381;51.254;15.592;2023-09-12T12:39:59;43.60;28.00
76537;DHT22;65381;51.254;15.592;2023-09-12T12:42:38;43.20;28.40
76537;DHT22;65381;51.254;15.592;2023-09-12T12:45:20;43.50;28.20
76537;DHT22;65381;51.254;15.592;2023-09-12T12:48:01;44.10;28.00
76537;DHT22;65381;51.254;15.592;2023-09-12T12:50:29;44.50;27.50
76537;DHT22;65381;51.254;15.592;2023-09-12T12:52:57;43.50;27.90
76537;DHT22;65381;51.254;15.592;2023-09-12T12:55:26;42.50;28.20
76537;DHT22;65381;51.254;15.592;2023-09-12T12:57:54;41.80;28.50
76537;DHT22;65381;51.254;15.592;2023-09-12T13:00:22;41.30;28.70
76537;DHT22;65381;51.254;15.592;2023-09-12T13:02:51;41.30;28.70
76537;DHT22;65381;51.254;15.592;2023-09-12T13:05:27;41.60;28.60
76537;DHT22;65381;51.254;15.592;2023-09-12T13:07:56;41.80;28.50
76537;DHT22;65381;51.254;15.592;2023-09-12T13:10:24;41.10;28.70
76537;DHT22;65381;51.254;15.592;2023-09-12T13:12:53;40.00;29.50
76537;DHT22;65381;51.254;15.592;2023-09-12T13:15:21;40.00;29.60
76537;DHT22;65381;51.254;15.592;2023-09-12T13:17:50;40.20;29.50
76537;DHT22;65381;51.254;15.592;2023-09-12T13:20:18;40.80;29.40
76537;DHT22;65381;51.254;15.592;2023-09-12T13:22:47;41.20;29.10
76537;DHT22;65381;51.254;15.592;2023-09-12T13:25:15;41.00;29.20
76537;DHT22;65381;51.254;15.592;2023-09-12T13:27:43;40.60;29.50
76537;DHT22;65381;51.254;15.592;2023-09-12T13:30:12;40.50;29.60
76537;DHT22;65381;51.254;15.592;2023-09-12T13:32:40;40.20;29.80
76537;DHT22;65381;51.254;15.592;2023-09-12T13:35:08;39.70;30.20
76537;DHT22;65381;51.254;15.592;2023-09-12T13:37:37;39.20;30.30
76537;DHT22;65381;51.254;15.592;2023-09-12T13:40:06;38.60;30.70
76537;DHT22;65381;51.254;15.592;2023-09-12T13:42:37;38.30;31.00
76537;DHT22;65381;51.254;15.592;2023-09-12T13:45:05;37.90;31.20
76537;DHT22;65381;51.254;15.592;2023-09-12T13:47:33;37.80;31.40
76537;DHT22;65381;51.254;15.592;2023-09-12T13:50:01;37.70;31.40
76537;DHT22;65381;51.254;15.592;2023-09-12T13:52:31;37.80;31.30
76537;DHT22;65381;51.254;15.592;2023-09-12T13:55:00;38.10;31.10
76537;DHT22;65381;51.254;15.592;2023-09-12T13:57:31;38.30;31.10
76537;DHT22;65381;51.254;15.592;2023-09-12T14:00:09;38.50;31.00
76537;DHT22;65381;51.254;15.592;2023-09-12T14:02:37;38.60;30.90
76537;DHT22;65381;51.254;15.592;2023-09-12T14:05:07;38.60;30.90
76537;DHT22;65381;51.254;15.592;2023-09-12T14:07:41;38.60;31.00
76537;DHT22;65381;51.254;15.592;2023-09-12T14:10:10;38.30;31.20
76537;DHT22;65381;51.254;15.592;2023-09-12T14:12:50;38.10;31.20
76537;DHT22;65381;51.254;15.592;2023-09-12T14:15:19;37.70;31.30
76537;DHT22;65381;51.254;15.592;2023-09-12T14:17:47;37.30;31.60
76537;DHT22;65381;51.254;15.592;2023-09-12T14:20:23;37.10;31.90
76537;DHT22;65381;51.254;15.592;2023-09-12T14:22:52;36.90;31.90
76537;DHT22;65381;51.254;15.592;2023-09-12T14:25:20;36.50;31.80
76537;DHT22;65381;51.254;15.592;2023-09-12T14:27:49;36.10;32.10
76537;DHT22;65381;51.254;15.592;2023-09-12T14:30:18;35.60;32.20
76537;DHT22;65381;51.254;15.592;2023-09-12T14:32:49;35.00;32.50
76537;DHT22;65381;51.254;15.592;2023-09-12T14:35:19;34.40;32.90
76537;DHT22;65381;51.254;15.592;2023-09-12T14:37:47;33.80;33.20
76537;DHT22;65381;51.254;15.592;2023-09-12T14:40:17;33.20;33.60
76537;DHT22;65381;51.254;15.592;2023-09-12T14:42:45;32.80;33.80
76537;DHT22;65381;51.254;15.592;2023-09-12T14:45:14;32.40;34.10
76537;DHT22;65381;51.254;15.592;2023-09-12T14:47:42;32.10;34.20
76537;DHT22;65381;51.254;15.592;2023-09-12T14:50:12;32.00;34.30
76537;DHT22;65381;51.254;15.592;2023-09-12T14:52:40;31.90;34.40
76537;DHT22;65381;51.254;15.592;2023-09-12T14:55:10;32.00;34.30
76537;DHT22;65381;51.254;15.592;2023-09-12T14:57:41;32.00;34.20
76537;DHT22;65381;51.254;15.592;2023-09-12T15:00:10;32.00;34.40
76537;DHT22;65381;51.254;15.592;2023-09-12T15:02:39;32.00;34.60
76537;DHT22;65381;51.254;15.592;2023-09-12T15:05:09;32.00;34.40
76537;DHT22;65381;51.254;15.592;2023-09-12T15:07:38;32.00;34.40
76537;DHT22;65381;51.254;15.592;2023-09-12T15:10:08;31.90;34.60
76537;DHT22;65381;51.254;15.592;2023-09-12T15:12:38;31.80;34.70
76537;DHT22;65381;51.254;15.592;2023-09-12T15:15:09;31.60;35.00
76537;DHT22;65381;51.254;15.592;2023-09-12T15:17:39;31.50;35.20
76537;DHT22;65381;51.254;15.592;2023-09-12T15:20:08;31.40;35.30
76537;DHT22;65381;51.254;15.592;2023-09-12T15:22:37;31.40;35.50
76537;DHT22;65381;51.254;15.592;2023-09-12T15:25:06;31.40;35.60
76537;DHT22;65381;51.254;15.592;2023-09-12T15:27:35;31.30;35.70
76537;DHT22;65381;51.254;15.592;2023-09-12T15:30:05;31.30;35.90
76537;DHT22;65381;51.254;15.592;2023-09-12T15:32:35;31.20;36.10
76537;DHT22;65381;51.254;15.592;2023-09-12T15:35:03;31.10;36.20
76537;DHT22;65381;51.254;15.592;2023-09-12T15:37:32;31.00;36.40